Time;durP1;ratioP1;P1;durP2;ratioP2;P2;SDS_P1;SDS_P2;PMS_P1;PMS_P2;Temp;Humidity;BMP_temperature;BMP_pressure;BME280_temperature;BME280_humidity;BME280_pressure;Samples;Min_cycle;Max_cycle;Signal;HPM_P1;HPM_P2
2023/01/03 00:01:19;;;;;;;0.90;0.90;;;;;;;6.78;100.00;101166.03;5014733;28;20678;-61
2023/01/03 00:03:45;;;;;;;1.90;1.30;;;;;;;6.84;100.00;101160.78;5034954;28;20275;-61
2023/01/03 00:06:20;;;;;;;1.30;1.20;;;;;;;6.76;100.00;101176.31;5033468;28;20251;-62
2023/01/03 00:08:46;;;;;;;2.67;1.07;;;;;;;6.82;100.00;101174.50;5034191;28;20626;-61
2023/01/03 00:11:13;;;;;;;1.30;1.20;;;;;;;6.88;100.00;101164.97;5023557;28;20240;-60
2023/01/03 00:13:39;;;;;;;2.43;1.70;;;;;;;6.89;100.00;101168.38;5033253;28;20189;-62
2023/01/03 00:16:13;;;;;;;2.83;1.20;;;;;;;6.83;100.00;101163.41;5022574;28;20239;-62
2023/01/03 00:18:38;;;;;;;2.03;1.23;;;;;;;6.88;100.00;101164.97;5033691;28;20197;-61
2023/01/03 00:21:03;;;;;;;1.47;1.10;;;;;;;6.85;100.00;101164.22;5036982;28;20394;-61
2023/01/03 00:23:29;;;;;;;1.63;1.30;;;;;;;6.81;100.00;101160.00;5045326;28;20232;-62
2023/01/03 00:25:54;;;;;;;1.53;1.13;;;;;;;6.75;100.00;101158.44;5046871;28;20276;-62
2023/01/03 00:28:19;;;;;;;2.03;1.20;;;;;;;6.67;100.00;101168.81;5024617;28;20192;-61
2023/01/03 00:30:45;;;;;;;1.77;1.30;;;;;;;6.59;100.00;101175.81;5018219;28;20241;-61
2023/01/03 00:33:10;;;;;;;1.23;1.13;;;;;;;6.60;100.00;101172.41;5045313;28;20596;-61
2023/01/03 00:35:35;;;;;;;1.50;1.40;;;;;;;6.56;100.00;101175.88;5033360;28;20186;-61
2023/01/03 00:38:00;;;;;;;1.50;1.40;;;;;;;6.56;100.00;101178.44;5033000;28;20173;-61
2023/01/03 00:40:26;;;;;;;2.00;1.80;;;;;;;6.49;100.00;101169.19;5023071;28;20710;-61
2023/01/03 00:45:35;;;;;;;2.17;1.70;;;;;;;6.43;100.00;101181.25;5049276;28;20296;-61
2023/01/03 00:48:00;;;;;;;5.00;2.07;;;;;;;6.42;100.00;101176.16;5043444;28;20283;-60
2023/01/03 00:50:25;;;;;;;2.00;1.90;;;;;;;6.43;100.00;101173.56;5022691;28;20589;-60
2023/01/03 00:52:51;;;;;;;2.73;2.23;;;;;;;6.29;100.00;101178.13;5032357;28;20235;-61
2023/01/03 00:55:18;;;;;;;2.50;1.87;;;;;;;6.23;100.00;101176.53;5029040;28;20211;-61
2023/01/03 00:57:43;;;;;;;2.37;1.97;;;;;;;6.14;100.00;101169.03;5043125;28;20187;-61
2023/01/03 01:00:09;;;;;;;2.37;2.17;;;;;;;6.06;100.00;101181.09;5041981;28;20185;-61
2023/01/03 01:02:35;;;;;;;3.63;2.60;;;;;;;6.02;100.00;101182.06;5051183;28;20631;-60
2023/01/03 01:05:00;;;;;;;2.40;2.20;;;;;;;5.98;100.00;101184.63;5048250;28;20197;-60
2023/01/03 01:07:25;;;;;;;2.67;2.47;;;;;;;6.02;100.00;101187.97;5041000;28;20547;-61
2023/01/03 01:09:50;;;;;;;2.80;2.60;;;;;;;6.04;100.00;101193.91;5050401;28;20196;-60
2023/01/03 01:12:16;;;;;;;3.63;2.83;;;;;;;6.03;100.00;101197.34;5029421;28;20255;-61
2023/01/03 01:14:41;;;;;;;3.37;2.80;;;;;;;6.02;100.00;101195.66;5029906;28;20239;-60
2023/01/03 01:17:08;;;;;;;2.67;2.47;;;;;;;6.03;100.00;101206.69;5040530;28;20527;-60
2023/01/03 01:19:36;;;;;;;3.30;3.00;;;;;;;6.00;100.00;101212.69;5038547;28;20187;-60
2023/01/03 01:22:03;;;;;;;4.43;2.80;;;;;;;5.96;100.00;101213.59;5030229;28;20594;-60
2023/01/03 01:24:28;;;;;;;2.97;2.77;;;;;;;5.94;100.00;101212.78;5044549;28;20227;-60
2023/01/03 01:26:54;;;;;;;2.87;2.67;;;;;;;5.88;100.00;101216.28;5031943;28;20211;-60
2023/01/03 01:29:19;;;;;;;2.90;2.70;;;;;;;5.94;100.00;101220.44;5044739;28;20263;-61
2023/01/03 01:31:46;;;;;;;3.07;2.60;;;;;;;5.88;100.00;101223.09;5021541;28;20224;-60
2023/01/03 01:34:15;;;;;;;3.30;3.00;;;;;;;5.91;100.00;101229.00;5035505;28;20635;-60
2023/01/03 01:36:42;;;;;;;5.17;2.80;;;;;;;5.93;100.00;101229.81;5047463;28;20173;-59
2023/01/03 01:39:14;;;;;;;2.97;2.77;;;;;;;5.88;100.00;101231.63;5037641;28;20178;-59
2023/01/03 01:45:04;;;;;;;3.73;3.27;;;;;;;5.89;100.00;101229.91;5020915;28;20195;-60
2023/01/03 01:47:38;;;;;;;4.17;3.00;;;;;;;6.10;100.00;101227.00;5020059;28;20219;-60
2023/01/03 01:50:12;;;;;;;3.70;2.97;;;;;;;6.19;100.00;101228.56;5027278;28;20643;-61
2023/01/03 01:52:49;;;;;;;5.00;3.10;;;;;;;6.13;100.00;101229.50;5031182;28;20184;-59
2023/01/03 01:55:19;;;;;;;2.93;2.67;;;;;;;6.10;100.00;101233.81;5032604;28;20197;-60
2023/01/03 01:57:45;;;;;;;3.53;2.97;;;;;;;6.08;100.00;101233.84;5031561;28;20547;-59
2023/01/03 02:00:12;;;;;;;3.13;2.73;;;;;;;6.05;100.00;101241.56;5004153;28;20238;-59
2023/01/03 02:02:37;;;;;;;3.33;3.03;;;;;;;6.02;100.00;101233.97;5030120;28;20215;-59
2023/01/03 02:05:07;;;;;;;4.57;3.10;;;;;;;5.94;100.00;101234.06;5032708;28;20669;-60
2023/01/03 02:07:33;;;;;;;3.10;2.87;;;;;;;5.94;100.00;101240.88;5031743;28;20190;-59
2023/01/03 02:09:59;;;;;;;3.30;3.07;;;;;;;5.92;100.00;101245.19;5013929;28;20253;-60
2023/01/03 02:15:31;;;;;;;3.30;3.00;;;;;;;5.73;100.00;101250.59;5032845;28;20311;-60
2023/01/03 02:18:37;;;;;;;3.53;2.97;;;;;;;5.64;100.00;101250.72;5033082;28;20188;-60
2023/01/03 02:21:28;;;;;;;3.23;2.93;;;;;;;5.61;100.00;101248.22;5004087;28;20228;-59
2023/01/03 02:24:32;;;;;;;3.10;2.80;;;;;;;5.55;100.00;101244.03;5030420;28;20263;-59
2023/01/03 02:27:34;;;;;;;3.73;3.43;;;;;;;5.49;100.00;101249.25;5018874;28;20514;-59
2023/01/03 02:30:31;;;;;;;5.37;3.10;;;;;;;5.49;100.00;101245.00;5031288;28;20321;-60
2023/01/03 02:33:17;;;;;;;5.23;3.60;;;;;;;5.57;100.00;101233.81;5004321;28;20210;-59
2023/01/03 02:36:05;;;;;;;3.50;3.23;;;;;;;5.47;100.00;101240.75;5044414;28;20224;-59
2023/01/03 02:38:39;;;;;;;3.83;3.47;;;;;;;5.47;100.00;101245.84;5044340;28;20193;-59
2023/01/03 02:41:26;;;;;;;4.20;3.80;;;;;;;5.43;100.00;101239.97;5020506;28;20244;-60
2023/01/03 02:44:22;;;;;;;3.70;3.40;;;;;;;5.32;100.00;101235.03;5030849;28;20197;-60
2023/01/03 02:46:57;;;;;;;5.13;4.20;;;;;;;5.31;100.00;101242.72;5025874;28;20198;-62
2023/01/03 02:49:33;;;;;;;4.63;4.13;;;;;;;5.24;100.00;101243.66;5031332;28;20192;-59
2023/01/03 02:52:02;;;;;;;4.43;4.10;;;;;;;5.23;100.00;101247.06;5020124;28;20306;-59
2023/01/03 02:54:51;;;;;;;5.90;3.93;;;;;;;5.10;100.00;101238.75;5031497;28;20172;-59
2023/01/03 02:57:21;;;;;;;4.10;3.80;;;;;;;5.13;100.00;101239.53;5031068;28;20193;-59
2023/01/03 02:59:52;;;;;;;5.33;4.70;;;;;;;5.05;100.00;101251.56;5030824;28;20182;-59
2023/01/03 03:02:22;;;;;;;4.37;3.97;;;;;;;4.98;100.00;101253.34;5020109;28;20230;-59
2023/01/03 03:04:54;;;;;;;4.80;4.40;;;;;;;4.91;100.00;101248.34;5031577;28;20234;-61
2023/01/03 03:07:25;;;;;;;4.70;4.30;;;;;;;4.92;100.00;101250.84;5040524;28;20191;-60
2023/01/03 03:15:27;;;;;;;4.53;4.13;;;;;;;4.89;100.00;101258.56;5034070;28;20576;-60
2023/01/03 03:17:56;;;;;;;4.70;4.20;;;;;;;4.85;100.00;101264.56;5040594;28;20185;-60
2023/01/03 03:26:02;;;;;;;5.70;4.13;;;;;;;4.80;100.00;101259.50;5019450;28;20258;-60
2023/01/03 03:28:34;;;;;;;8.30;4.80;;;;;;;4.79;100.00;101269.75;5017438;28;20215;-60
2023/01/03 03:31:24;;;;;;;6.10;5.40;;;;;;;4.66;100.00;101269.88;5024433;28;20227;-62
2023/01/03 03:33:58;;;;;;;5.47;4.37;;;;;;;4.74;100.00;101281.66;5044219;28;20214;-60
2023/01/03 03:36:29;;;;;;;5.00;4.40;;;;;;;4.49;100.00;101285.34;5041464;28;20610;-62
2023/01/03 03:38:54;;;;;;;5.10;4.53;;;;;;;4.62;100.00;101283.50;5034921;28;20210;-61
2023/01/03 03:47:55;;;;;;;5.20;4.70;;;;;;;4.43;100.00;101285.41;5053906;28;20556;-59
2023/01/03 03:50:20;;;;;;;5.77;5.03;;;;;;;4.46;100.00;101287.06;5030964;28;20264;-61
2023/01/03 03:52:50;;;;;;;7.67;4.87;;;;;;;4.42;100.00;101290.53;5042948;28;20263;-62
2023/01/03 03:55:21;;;;;;;5.87;5.27;;;;;;;4.44;100.00;101284.56;5037366;28;20585;-60
2023/01/03 03:57:54;;;;;;;5.20;4.80;;;;;;;4.44;100.00;101291.34;5033946;28;20223;-59
2023/01/03 04:00:24;;;;;;;5.87;4.87;;;;;;;4.39;100.00;101291.41;5014130;28;20210;-59
2023/01/03 04:02:51;;;;;;;6.80;5.00;;;;;;;4.36;100.00;101289.69;5033278;28;20592;-62
2023/01/03 04:05:21;;;;;;;6.60;4.83;;;;;;;4.34;100.00;101285.47;5035175;28;20391;-59
2023/01/03 04:07:47;;;;;;;5.50;4.97;;;;;;;4.33;100.00;101294.00;5034179;28;20187;-61
2023/01/03 04:10:14;;;;;;;6.07;5.43;;;;;;;4.35;100.00;101292.25;5021911;28;20752;-62
2023/01/03 04:12:39;;;;;;;6.03;4.77;;;;;;;4.36;100.00;101296.50;5033120;28;20344;-59
2023/01/03 04:15:05;;;;;;;6.40;5.80;;;;;;;4.33;100.00;101296.56;5023774;28;20269;-61
2023/01/03 04:17:31;;;;;;;8.07;6.60;;;;;;;4.33;100.00;101294.00;5032333;28;20507;-61
2023/01/03 04:19:57;;;;;;;8.03;6.83;;;;;;;4.35;100.00;101290.59;5033971;28;20229;-62
2023/01/03 04:22:22;;;;;;;9.97;7.00;;;;;;;4.26;100.00;101295.75;5035567;28;20300;-62
2023/01/03 04:24:47;;;;;;;7.77;6.87;;;;;;;4.27;100.00;101294.88;5015582;28;20689;-61
2023/01/03 04:27:13;;;;;;;9.83;6.80;;;;;;;4.30;100.00;101297.41;5033630;28;20703;-61
2023/01/03 04:29:38;;;;;;;6.97;6.23;;;;;;;4.32;100.00;101303.34;5034769;28;20178;-61
2023/01/03 04:32:04;;;;;;;6.57;5.90;;;;;;;4.25;100.00;101293.22;5039624;28;20221;-62
2023/01/03 04:34:29;;;;;;;6.90;6.20;;;;;;;4.25;100.00;101295.75;5034426;28;20336;-61
2023/01/03 04:36:54;;;;;;;7.63;6.57;;;;;;;4.22;100.00;101301.75;5033491;28;20201;-61
2023/01/03 04:39:20;;;;;;;7.47;6.40;;;;;;;4.17;100.00;101306.84;5016453;28;20182;-61
2023/01/03 04:41:45;;;;;;;6.37;5.87;;;;;;;4.17;100.00;101293.28;5037033;28;20229;-62
2023/01/03 04:44:10;;;;;;;8.20;6.43;;;;;;;4.21;100.00;101297.50;5035095;28;20184;-61
2023/01/03 04:46:38;;;;;;;7.97;7.17;;;;;;;4.16;100.00;101300.06;5033028;28;20634;-62
2023/01/03 04:49:06;;;;;;;9.27;7.10;;;;;;;4.15;100.00;101300.09;5033812;28;20178;-61
2023/01/03 04:51:31;;;;;;;9.50;7.60;;;;;;;4.15;100.00;101303.47;5035142;28;20260;-62
2023/01/03 04:53:56;;;;;;;9.27;8.33;;;;;;;4.07;100.00;101305.25;5056616;28;20212;-61
2023/01/03 04:56:26;;;;;;;9.63;8.73;;;;;;;4.24;100.00;101314.44;5040397;28;20199;-62
2023/01/03 04:58:52;;;;;;;11.10;9.10;;;;;;;4.01;100.00;101313.78;5033692;28;20554;-62
2023/01/03 05:01:17;;;;;;;12.03;9.97;;;;;;;4.03;100.00;101316.31;5033190;28;20316;-64
2023/01/03 05:03:42;;;;;;;10.93;9.40;;;;;;;3.99;100.00;101317.19;5021822;28;20206;-61
2023/01/03 05:06:09;;;;;;;8.97;8.17;;;;;;;3.91;100.00;101316.41;5033265;28;20241;-62
2023/01/03 05:08:35;;;;;;;12.20;8.70;;;;;;;3.90;100.00;101322.38;5033442;28;20185;-62
2023/01/03 05:11:04;;;;;;;9.90;9.00;;;;;;;3.84;100.00;101324.06;5012575;28;20229;-62
2023/01/03 05:13:31;;;;;;;9.20;8.27;;;;;;;3.95;100.00;101318.09;5047351;28;20240;-62
2023/01/03 05:16:02;;;;;;;10.87;7.40;;;;;;;3.90;100.00;101314.72;5049925;28;20518;-60
2023/01/03 05:18:29;;;;;;;9.17;8.27;;;;;;;3.82;100.00;101310.53;5049309;28;20216;-60
2023/01/03 05:26:22;;;;;;;12.43;9.30;;;;;;;3.62;100.00;101310.69;5046148;28;20261;-61
2023/01/03 05:28:51;;;;;;;9.90;9.00;;;;;;;3.60;100.00;101314.06;5049603;28;20184;-61
2023/01/03 05:31:16;;;;;;;8.47;7.67;;;;;;;3.56;100.00;101325.97;5044742;28;20557;-62
2023/01/03 05:33:42;;;;;;;9.10;8.20;;;;;;;3.55;100.00;101319.19;5054815;28;20189;-63
2023/01/03 05:36:10;;;;;;;10.77;8.70;;;;;;;3.28;100.00;101322.72;5052276;28;20181;-61
2023/01/03 05:38:36;;;;;;;12.53;9.30;;;;;;;3.33;100.00;101329.47;5048379;28;20189;-60
2023/01/03 05:41:02;;;;;;;14.20;9.97;;;;;;;3.38;100.00;101329.44;5042913;28;20589;-60
2023/01/03 05:43:27;;;;;;;10.27;9.27;;;;;;;3.30;100.00;101338.81;5055558;28;20186;-60
2023/01/03 05:45:52;;;;;;;11.60;8.97;;;;;;;3.22;100.00;101334.63;5044544;28;20197;-60
2023/01/03 05:48:19;;;;;;;10.03;9.03;;;;;;;3.11;100.00;101325.34;5047879;28;20270;-60
2023/01/03 05:50:45;;;;;;;10.93;9.37;;;;;;;3.05;100.00;101329.59;5036539;28;20221;-60
2023/01/03 05:53:11;;;;;;;10.77;9.53;;;;;;;3.09;100.00;101324.47;5041916;28;20656;-60
2023/01/03 05:55:37;;;;;;;12.27;9.40;;;;;;;2.93;100.00;101332.19;5032329;28;20212;-59
2023/01/03 05:58:03;;;;;;;12.73;9.20;;;;;;;3.00;100.00;101335.53;5030020;28;20190;-60
2023/01/03 06:00:29;;;;;;;14.27;10.17;;;;;;;2.94;100.00;101341.50;5044817;28;20630;-60
2023/01/03 06:02:54;;;;;;;11.67;9.40;;;;;;;3.00;100.00;101333.84;5046407;28;20202;-59
2023/01/03 06:05:20;;;;;;;12.43;9.57;;;;;;;2.96;100.00;101341.47;5050583;28;20269;-60
2023/01/03 06:07:45;;;;;;;12.33;10.10;;;;;;;2.87;100.00;101347.44;5050437;28;20205;-60
2023/01/03 06:10:10;;;;;;;10.77;9.70;;;;;;;2.87;100.00;101353.34;5022453;28;20173;-60
2023/01/03 06:12:35;;;;;;;11.73;10.20;;;;;;;2.87;100.00;101348.28;5065475;28;20185;-59
2023/01/03 06:15:01;;;;;;;14.30;11.37;;;;;;;2.96;100.00;101347.41;5050445;28;20263;-61
2023/01/03 06:20:10;;;;;;;16.40;11.40;;;;;;;2.95;100.00;101348.25;5041922;28;20246;-60
2023/01/03 06:22:36;;;;;;;12.90;10.40;;;;;;;3.00;100.00;101353.31;5064421;28;20223;-61
2023/01/03 06:25:01;;;;;;;13.90;11.13;;;;;;;3.07;100.00;101350.75;5050544;28;20232;-60
2023/01/03 06:27:27;;;;;;;15.53;12.57;;;;;;;3.02;100.00;101357.56;5049303;28;20177;-60
2023/01/03 06:29:52;;;;;;;12.20;10.10;;;;;;;3.07;100.00;101352.47;5050551;28;20185;-60
2023/01/03 06:32:17;;;;;;;13.47;12.03;;;;;;;3.09;100.00;101362.63;5038283;28;20224;-60
2023/01/03 06:34:42;;;;;;;15.33;12.17;;;;;;;3.00;100.00;101355.88;5050616;28;20181;-60
2023/01/03 06:37:08;;;;;;;16.00;12.00;;;;;;;2.99;100.00;101364.34;5044639;28;20234;-60
2023/01/03 06:39:33;;;;;;;17.33;12.43;;;;;;;2.78;100.00;101348.31;5045551;28;20185;-60
2023/01/03 06:42:38;;;;;;;16.13;12.30;;;;;;;2.68;100.00;101357.66;5034956;28;20299;-60
2023/01/03 06:53:10;;;;;;;15.13;11.20;;;;;;;2.70;100.00;101355.09;5050005;28;20188;-59
2023/01/03 06:53:13;;;;;;;12.27;11.07;;;;;;;2.70;100.00;101357.63;5060969;28;20581;-60
2023/01/03 06:55:42;;;;;;;14.53;11.10;;;;;;;2.66;100.00;101355.97;5047192;28;20173;-60
2023/01/03 06:58:08;;;;;;;17.83;12.77;;;;;;;2.55;100.00;101359.34;5029533;28;20192;-61
2023/01/03 07:00:36;;;;;;;13.13;10.87;;;;;;;2.55;100.00;101364.41;5042054;28;20338;-60
2023/01/03 07:03:01;;;;;;;15.37;12.63;;;;;;;2.53;100.00;101363.59;5059763;28;20193;-61
2023/01/03 07:05:26;;;;;;;15.00;10.73;;;;;;;2.49;100.00;101361.03;5048384;28;20187;-60
2023/01/03 07:07:52;;;;;;;15.87;11.97;;;;;;;2.49;100.00;101371.22;5047382;28;20713;-61
2023/01/03 07:10:17;;;;;;;16.77;11.70;;;;;;;2.51;100.00;101379.69;5019956;28;20181;-60
2023/01/03 07:15:26;;;;;;;12.67;10.90;;;;;;;2.35;100.00;101378.84;5048470;28;20187;-61
2023/01/03 07:17:51;;;;;;;12.23;10.57;;;;;;;2.38;100.00;101383.91;5046660;28;20187;-60
2023/01/03 07:20:17;;;;;;;11.60;10.40;;;;;;;2.37;100.00;101389.81;5038548;28;20178;-60
2023/01/03 07:22:42;;;;;;;13.20;11.00;;;;;;;2.35;100.00;101394.06;5059409;28;20186;-61
2023/01/03 07:25:08;;;;;;;20.13;11.97;;;;;;;2.43;100.00;101389.81;5049474;28;20226;-61
2023/01/03 07:27:33;;;;;;;14.53;11.93;;;;;;;2.49;100.00;101392.34;5047009;28;20184;-60
2023/01/03 07:29:58;;;;;;;13.87;12.17;;;;;;;2.58;100.00;101394.91;5048186;28;20187;-60
2023/01/03 07:32:23;;;;;;;14.83;11.27;;;;;;;2.40;100.00;101400.81;5052930;28;20761;-60
2023/01/03 07:34:49;;;;;;;12.60;11.23;;;;;;;2.37;100.00;101397.44;5023297;28;20213;-61
2023/01/03 07:37:14;;;;;;;15.70;12.67;;;;;;;2.31;100.00;101398.31;5032273;28;20173;-61
2023/01/03 07:39:39;;;;;;;13.47;11.90;;;;;;;2.30;100.00;101399.13;5030669;28;20178;-62
2023/01/03 07:44:48;;;;;;;14.40;11.07;;;;;;;2.33;100.00;101413.53;5040238;28;20196;-60
2023/01/03 07:47:14;;;;;;;14.23;12.17;;;;;;;2.22;100.00;101429.59;5044988;28;20208;-60
2023/01/03 07:49:39;;;;;;;16.60;10.77;;;;;;;2.28;100.00;101427.91;5048970;28;20184;-61
2023/01/03 07:52:04;;;;;;;15.83;11.53;;;;;;;2.24;100.00;101429.59;5033589;28;20216;-60
2023/01/03 07:54:29;;;;;;;12.23;10.90;;;;;;;2.26;100.00;101433.84;5046736;28;20190;-61
2023/01/03 07:56:55;;;;;;;12.87;11.57;;;;;;;2.30;100.00;101433.84;5049825;28;20180;-60
2023/01/03 07:59:20;;;;;;;14.97;11.20;;;;;;;2.26;100.00;101430.47;5041776;28;20187;-60
2023/01/03 08:01:45;;;;;;;16.20;11.20;;;;;;;2.21;100.00;101438.06;5025917;28;20252;-60
2023/01/03 08:04:10;;;;;;;15.83;11.93;;;;;;;2.25;100.00;101439.75;5040822;28;20218;-60
2023/01/03 08:06:36;;;;;;;12.93;10.90;;;;;;;2.28;100.00;101435.53;5032409;28;20751;-60
2023/01/03 08:14:29;;;;;;;13.83;12.30;;;;;;;2.30;100.00;101436.41;5019817;28;20194;-60
2023/01/03 08:16:54;;;;;;;19.77;12.57;;;;;;;2.24;100.00;101442.31;5042978;28;20309;-60
2023/01/03 08:19:20;;;;;;;13.47;11.53;;;;;;;2.33;100.00;101444.88;5052458;28;20181;-60
2023/01/03 08:21:45;;;;;;;17.03;13.30;;;;;;;2.36;100.00;101451.63;5043946;28;20254;-60
2023/01/03 08:24:10;;;;;;;20.77;15.37;;;;;;;2.31;100.00;101453.28;5045553;28;20580;-60
2023/01/03 08:27:25;;;;;;;23.50;14.60;;;;;;;2.30;100.00;101464.31;5040093;28;20204;-59
2023/01/03 08:29:49;;;;;;;17.67;13.70;;;;;;;2.55;100.00;101463.47;5039513;28;20228;-60
2023/01/03 08:32:15;;;;;;;20.53;13.43;;;;;;;2.42;100.00;101457.56;5049165;28;20306;-60
2023/01/03 08:34:43;;;;;;;16.37;12.70;;;;;;;2.65;100.00;101468.59;5040850;28;20183;-60
2023/01/03 08:37:11;;;;;;;14.97;12.47;;;;;;;2.86;100.00;101472.81;5043745;28;20180;-60
2023/01/03 08:39:41;;;;;;;15.20;13.57;;;;;;;2.93;100.00;101468.56;5040439;28;20280;-59
2023/01/03 08:42:10;;;;;;;16.23;13.73;;;;;;;3.05;100.00;101463.47;5044343;28;20281;-62
2023/01/03 08:44:36;;;;;;;20.77;14.47;;;;;;;2.94;100.00;101468.59;5032296;28;20192;-60
2023/01/03 08:47:04;;;;;;;24.83;21.33;;;;;;;3.24;100.00;101464.31;5058353;28;20432;-61
2023/01/03 08:49:30;;;;;;;20.57;17.57;;;;;;;3.20;100.00;101460.06;5053944;28;20273;-62
2023/01/03 08:51:55;;;;;;;22.10;16.47;;;;;;;3.15;100.00;101460.09;5039819;28;20318;-61
2023/01/03 08:54:21;;;;;;;25.17;18.27;;;;;;;3.30;100.00;101453.25;5041319;28;20228;-62
2023/01/03 08:56:46;;;;;;;18.63;16.63;;;;;;;3.53;100.00;101455.72;5047228;28;20185;-60
2023/01/03 08:59:11;;;;;;;24.30;18.90;;;;;;;3.97;100.00;101464.88;5050671;28;20196;-60
2023/01/03 09:01:37;;;;;;;21.63;19.33;;;;;;;4.78;100.00;101457.53;5045873;28;20259;-60
2023/01/03 09:04:04;;;;;;;21.63;19.20;;;;;;;6.07;100.00;101456.97;5044454;28;20214;-61
2023/01/03 09:06:29;;;;;;;16.50;14.80;;;;;;;7.66;100.00;101450.00;5043029;28;20284;-60
2023/01/03 09:08:55;;;;;;;12.30;11.03;;;;;;;8.97;100.00;101441.84;5050707;28;20264;-60
2023/01/03 09:11:20;;;;;;;9.23;8.43;;;;;;;10.60;100.00;101443.03;5047305;28;20707;-61
2023/01/03 09:13:46;;;;;;;7.90;7.10;;;;;;;11.65;100.00;101435.97;5051519;28;20186;-60
2023/01/03 09:16:15;;;;;;;8.20;6.50;;;;;;;12.25;100.00;101445.72;5044167;28;20545;-60
2023/01/03 09:18:40;;;;;;;7.40;6.53;;;;;;;12.31;100.00;101442.88;5050610;28;20190;-60
2023/01/03 09:21:06;;;;;;;8.27;6.13;;;;;;;13.14;100.00;101451.47;5045665;28;20284;-61
2023/01/03 09:23:32;;;;;;;7.73;5.90;;;;;;;14.52;100.00;101458.94;5054513;28;20229;-61
2023/01/03 09:25:58;;;;;;;6.43;5.77;;;;;;;15.63;94.72;101460.16;5044287;28;20672;-61
2023/01/03 09:28:23;;;;;;;6.80;5.03;;;;;;;15.63;86.06;101461.94;5044806;28;20174;-60
2023/01/03 09:30:49;;;;;;;8.60;4.83;;;;;;;13.15;97.26;101467.84;5036396;28;20233;-60
2023/01/03 09:33:14;;;;;;;6.13;5.00;;;;;;;14.30;95.67;101463.47;5046234;28;20281;-60
2023/01/03 09:35:39;;;;;;;5.57;5.03;;;;;;;15.29;85.39;101469.75;5036449;28;20264;-60
2023/01/03 09:38:05;;;;;;;6.07;4.93;;;;;;;15.69;79.83;101465.94;5035864;28;20264;-61
2023/01/03 09:40:35;;;;;;;5.27;4.27;;;;;;;16.15;74.01;101460.84;5043002;28;20247;-60
2023/01/03 09:43:12;;;;;;;7.57;4.63;;;;;;;15.70;78.85;101460.66;5062340;28;20336;-60
2023/01/03 09:45:44;;;;;;;5.53;4.90;;;;;;;14.91;83.87;101463.94;5045915;28;20205;-60
2023/01/03 09:48:14;;;;;;;6.00;5.13;;;;;;;14.99;84.35;101460.03;5038308;28;20177;-60
2023/01/03 09:50:42;;;;;;;5.07;4.60;;;;;;;15.15;86.56;101457.50;5035470;28;20232;-60
2023/01/03 10:04:55;;;;;;;5.07;3.47;;;;;;;20.29;47.03;101475.00;5048551;28;20258;-60
2023/01/03 10:07:31;;;;;;;4.03;3.53;;;;;;;20.14;45.97;101473.50;5039574;28;20209;-58
2023/01/03 10:10:03;;;;;;;4.20;3.53;;;;;;;19.40;47.43;101477.00;5063407;28;20177;-58
2023/01/03 10:12:41;;;;;;;4.13;3.80;;;;;;;17.77;52.80;101480.78;5022108;28;20225;-58
2023/01/03 10:15:38;;;;;;;4.30;3.90;;;;;;;15.39;67.61;101483.03;5030868;28;20177;-60
2023/01/03 10:18:16;;;;;;;5.67;4.07;;;;;;;13.67;87.89;101485.38;5047402;28;20662;-61
2023/01/03 10:20:49;;;;;;;8.10;4.20;;;;;;;12.36;99.31;101479.66;5021866;28;20241;-60
2023/01/03 10:23:14;;;;;;;5.10;4.57;;;;;;;11.60;100.00;101474.78;5033894;28;20630;-60
2023/01/03 10:25:43;;;;;;;5.97;4.73;;;;;;;10.79;100.00;101483.63;5020428;28;20207;-60
2023/01/03 10:28:18;;;;;;;6.40;5.43;;;;;;;10.39;100.00;101483.19;5030967;28;20232;-60
2023/01/03 10:31:19;;;;;;;6.43;5.83;;;;;;;9.76;100.00;101478.19;5024954;28;20221;-59
2023/01/03 10:33:46;;;;;;;6.33;5.27;;;;;;;9.48;100.00;101483.28;5032994;28;20656;-59
2023/01/03 10:36:13;;;;;;;7.63;6.03;;;;;;;9.38;100.00;101482.69;5031895;28;20178;-59
2023/01/03 10:38:39;;;;;;;8.70;6.40;;;;;;;9.44;100.00;101476.53;5034162;28;20244;-60
2023/01/03 10:41:15;;;;;;;7.47;6.77;;;;;;;9.41;100.00;101479.19;5013573;28;20607;-60
2023/01/03 10:43:42;;;;;;;8.93;8.03;;;;;;;9.17;100.00;101482.38;5023196;28;20177;-60
2023/01/03 10:46:16;;;;;;;9.50;8.63;;;;;;;8.91;100.00;101479.66;5032724;28;20205;-60
2023/01/03 10:48:44;;;;;;;9.37;8.47;;;;;;;8.92;100.00;101476.19;5028353;28;20196;-60
2023/01/03 10:51:34;;;;;;;9.53;8.63;;;;;;;8.78;100.00;101469.69;5038504;28;20213;-59
2023/01/03 10:54:11;;;;;;;9.67;8.67;;;;;;;8.75;100.00;101474.91;5023541;28;20173;-60
2023/01/03 10:56:37;;;;;;;12.70;8.63;;;;;;;8.89;100.00;101471.97;5049089;28;20319;-59
2023/01/03 10:59:16;;;;;;;11.67;9.50;;;;;;;8.74;100.00;101467.25;5050189;28;20296;-60
2023/01/03 11:01:56;;;;;;;10.60;9.53;;;;;;;8.77;100.00;101468.00;5048928;28;20212;-60
2023/01/03 11:04:22;;;;;;;11.13;9.53;;;;;;;8.78;100.00;101462.00;5041797;28;20564;-60
2023/01/03 11:07:02;;;;;;;10.57;9.20;;;;;;;8.55;100.00;101463.41;5041340;28;20288;-60
2023/01/03 11:09:34;;;;;;;12.43;9.87;;;;;;;8.58;100.00;101452.22;5033274;28;20185;-60
2023/01/03 11:12:10;;;;;;;10.77;9.67;;;;;;;8.56;100.00;101459.13;5047134;28;20326;-61
2023/01/03 11:14:35;;;;;;;11.27;9.70;;;;;;;8.66;100.00;101454.63;5047103;28;20184;-61
2023/01/03 11:17:03;;;;;;;9.93;8.93;;;;;;;8.78;100.00;101454.31;5030300;28;20209;-61
2023/01/03 11:19:32;;;;;;;10.27;9.27;;;;;;;8.83;100.00;101451.59;5030906;28;20186;-61
2023/01/03 11:22:04;;;;;;;10.80;9.70;;;;;;;8.60;100.00;101447.91;5019394;28;20261;-60
2023/01/03 11:24:54;;;;;;;12.67;9.27;;;;;;;8.63;100.00;101442.69;5013675;28;20225;-61
2023/01/03 11:27:59;;;;;;;10.57;9.57;;;;;;;8.13;100.00;101448.09;5012143;28;20223;-60
2023/01/03 11:30:32;;;;;;;11.03;9.47;;;;;;;8.15;100.00;101453.19;5021973;28;20602;-61
2023/01/03 11:33:25;;;;;;;10.80;9.70;;;;;;;8.34;100.00;101449.34;5025914;28;20183;-60
2023/01/03 11:35:57;;;;;;;12.23;10.00;;;;;;;8.64;100.00;101448.66;5034176;28;20185;-60
2023/01/03 11:38:25;;;;;;;10.43;9.33;;;;;;;8.87;100.00;101437.84;5035111;28;20190;-60
2023/01/03 11:41:02;;;;;;;10.70;9.57;;;;;;;8.62;100.00;101435.03;5033640;28;20221;-60
2023/01/03 11:43:56;;;;;;;10.77;9.50;;;;;;;8.46;100.00;101442.22;5025374;28;20645;-59
2023/01/03 11:46:46;;;;;;;9.37;8.37;;;;;;;8.43;100.00;101432.06;5035203;28;20213;-59
2023/01/03 11:49:39;;;;;;;10.17;9.27;;;;;;;8.47;100.00;101436.25;5033779;28;20205;-59
2023/01/03 11:52:29;;;;;;;12.37;9.77;;;;;;;8.55;100.00;101427.50;5039727;28;20229;-61
2023/01/03 11:55:18;;;;;;;10.03;9.03;;;;;;;8.46;100.00;101424.28;5033402;28;20633;-59
2023/01/03 11:57:57;;;;;;;9.87;8.67;;;;;;;8.45;100.00;101415.75;5033887;28;20171;-59
2023/01/03 12:00:41;;;;;;;13.23;9.33;;;;;;;8.71;100.00;101411.72;5009747;27;20316;-59
2023/01/03 12:04:02;;;;;;;9.33;8.43;;;;;;;8.73;100.00;101409.94;5052167;28;20177;-60
2023/01/03 12:06:54;;;;;;;8.60;7.30;;;;;;;8.96;100.00;101408.53;4994315;28;20217;-59
2023/01/03 12:09:29;;;;;;;10.37;8.13;;;;;;;9.17;100.00;101415.63;5034207;28;20211;-61
2023/01/03 12:12:24;;;;;;;10.87;7.30;;;;;;;9.13;100.00;101406.34;5021687;28;20236;-59
2023/01/03 12:15:28;;;;;;;7.53;6.57;;;;;;;9.00;100.00;101407.53;5012242;28;20183;-60
2023/01/03 12:17:53;;;;;;;7.87;6.43;;;;;;;9.16;100.00;101410.53;4962359;28;20302;-60
2023/01/03 12:20:30;;;;;;;7.30;6.30;;;;;;;9.02;100.00;101411.75;4962101;28;20192;-59
2023/01/03 12:23:04;;;;;;;9.50;7.27;;;;;;;9.06;100.00;101411.69;4972268;28;20609;-66
2023/01/03 12:25:35;;;;;;;6.93;6.00;;;;;;;9.15;100.00;101412.28;4972532;28;20215;-60
2023/01/03 12:28:10;;;;;;;8.87;7.93;;;;;;;9.07;100.00;101406.50;4971684;28;20562;-60
2023/01/03 12:30:49;;;;;;;9.80;8.63;;;;;;;9.10;100.00;101403.00;4962576;28;20298;-60
2023/01/03 12:33:37;;;;;;;11.20;10.10;;;;;;;9.02;100.00;101401.47;4971540;28;20302;-60
2023/01/03 12:36:21;;;;;;;11.10;10.00;;;;;;;8.68;100.00;101401.53;4971145;28;20176;-59
2023/01/03 12:39:00;;;;;;;11.57;10.33;;;;;;;8.86;100.00;101392.53;4964188;28;20184;-60